AirNav   Air Wisconsin pilot careers
 
 1003 users online  

F56 Arledge Field Airport
Stamford, Texas, USA

GOING TO STAMFORD?


FAA INFORMATION EFFECTIVE 21 JUNE 2018

Location

FAA Identifier: F56
Lat/Long: 32-54-37.7000N / 099-44-03.0000W
32-54.628333N / 099-44.050000W
32.9104722 / -99.7341667
(estimated)
Elevation: 1560.8 ft. / 475.7 m (surveyed)
Variation: 06E (2010)
From city: 4 miles SE of STAMFORD, TX
Time zone: UTC -5 (UTC -6 during Standard Time)
Zip code: 79503

Airport Operations

Airport use: Open to the public
Activation date: 09/1941
Control tower: no
ARTCC: FORT WORTH CENTER
FSS: FORT WORTH FLIGHT SERVICE STATION
NOTAMs facility: FTW (NOTAM-D service available)
Attendance: UNATNDD
Wind indicator: lighted
Segmented circle: yes
Lights: ACTVT MIRL RY 17/35 - CTAF.
Beacon: white-green (lighted land airport)
Operates sunset to sunrise.

Airport Communications

CTAF/UNICOM: 122.8
ABILENE APPROACH: 127.2
ABILENE DEPARTURE: 127.2

Nearby radio navigation aids

VOR radial/distance  VOR name  Freq  Var
ABIr004/26.6ABILENE VORTAC113.7010E

Airport Services

Fuel available: 100LL
Parking: hangars and tiedowns
Airframe service: MAJOR
Powerplant service: MAJOR
Bottled oxygen: NONE
Bulk oxygen: NONE

Runway Information

Runway 17/35

Dimensions: 3707 x 60 ft. / 1130 x 18 m
Surface: asphalt, in good condition
Weight bearing capacity: 
Single wheel: 4.0
Runway edge lights: medium intensity
RUNWAY 17  RUNWAY 35
Latitude: 32-54.854227N32-54.243023N
Longitude: 099-44.157137W099-44.162220W
Elevation: 1560.6 ft.1553.8 ft.
Gradient: 0.2%0.2%
Traffic pattern: leftleft
Runway heading: 174 magnetic, 180 true354 magnetic, 000 true
Markings: nonprecision, in good conditionnonprecision, in good condition
Touchdown point: yes, no lightsyes, no lights
Obstructions: 15 ft. road, 900 ft. from runway, 46:1 slope to clear
10 FT ROAD 60 FT EAST OF RY CENTERLINE AT THLD.
none

Runway 8/26

Dimensions: 2211 x 50 ft. / 674 x 15 m
Surface: turf, in fair condition
RUNWAY 8  RUNWAY 26
Latitude: 32-54.747442N32-54.741275N
Longitude: 099-44.163825W099-43.731750W
Elevation: 1560.0 ft.1554.9 ft.
Gradient: 0.2%0.2%
Traffic pattern: leftleft
Runway heading: 085 magnetic, 091 true265 magnetic, 271 true
Touchdown point: yes, no lightsyes, no lights
Obstructions: 10 ft. road, 50 ft. left of centerlinenone

Runway 13/31

Dimensions: 1702 x 50 ft. / 519 x 15 m
Surface: turf/gravel, in fair condition
Gradient: NW.
RUNWAY 13  RUNWAY 31
Latitude: 32-54.751265N32-54.550128N
Longitude: 099-44.057410W099-43.825367W
Elevation: 1558.0 ft.1552.5 ft.
Gradient: 0.3%0.3% UP
Traffic pattern: leftleft
Runway heading: 130 magnetic, 136 true310 magnetic, 316 true
Touchdown point: yes, no lightsyes, no lights
Obstructions: 10 ft. road10 ft. road

Airport Ownership and Management from official FAA records

Ownership: Publicly-owned
Owner: CITY OF STAMFORD
PO BOX 191
STAMFORD, TX 79553
Phone 325-773-2591
Manager: ALAN PLUMLEE
PO BOX 191
STAMFORD, TX 79553
Phone 325-773-2591
CITY MANAGER

Airport Operational Statistics

Aircraft based on the field: 16
Single engine airplanes: 14
Multi engine airplanes: 2
    
Aircraft operations: avg 94/week *
67% local general aviation
33% transient general aviation
* for 12-month period ending 18 April 2018

Additional Remarks

FARM EQUIPMENT INVOF AIRPORT.

Instrument Procedures

NOTE: All procedures below are presented as PDF files. If you need a reader for these files, you should download the free Adobe Reader.

NOT FOR NAVIGATION. Please procure official charts for flight.
FAA instrument procedures published for use from 21 June 2018 at 0901Z to 19 July 2018 at 0900Z.

 
IAPs - Instrument Approach Procedures
RNAV (GPS) RWY 17   download (163KB)
RNAV (GPS) RWY 35   download (175KB)
NOTE: Special Take-Off Minimums/Departure Procedures apply   download (113KB)

Other nearby airports with instrument procedures:

15F - Haskell Municipal Airport (17 nm N)
T23 - Albany Municipal Airport (26 nm SE)
KABI - Abilene Regional Airport (30 nm S)
KDYS - Dyess Air Force Base (30 nm S)
KBKD - Stephens County Airport (44 nm E)
 
Loc | Ops | Rwys | IFR | FBO | Links
Com | Nav | Svcs | Stats | Notes

AirNav Hotels Sweepstakes
 
Area around F56 (Arledge Field Airport)
 
Road maps at: MapQuest Bing Google
 
Aerial photo
WARNING: Photo may not be current or correct
Aerial photo of F56 (Arledge Field Airport)
Photo by John McDonald
Taken in 2007

Do you have a better or more recent aerial photo of Arledge Field Airport that you would like to share? If so, please send us your photo.

 
Sectional chart

 
Airport distance calculator
Flying to Arledge Field Airport? Find the distance to fly.

From to F56

Sunrise and sunset
Times for 21-Jun-2018
 Local
(UTC-5)
 Zulu
(UTC)
Morning civil twilight06:0311:03
Sunrise06:3211:32
Sunset20:4901:49
Evening civil twilight21:1802:18

Current date and time
Zulu (UTC)  22-Jun-2018 00:13:07
Local (UTC-5)  21-Jun-2018 19:13:07
 
METAR
KABI 
30nm S 
212352Z 21004KT 10SM CLR 34/16 A2989 RMK AO2 SLP095 T03440156 10361 20311 56016
KDYS 
30nm S 
212356Z AUTO 00000KT 10SM CLR 36/14 A2989 RMK AO2 SLP071 T03550142 10359 20324 57017
KBKD 
44nm E 
212355Z AUTO 00000KT 5SM HZ SCT090 BKN110 37/13 A2986 RMK AO2 T03710133 10378 20341
KSWW 
46nm SW 
212355Z AUTO 09008KT 10SM BKN085 BKN110 36/13 A2995 RMK AO2 T03610132 10365 20326
KGZN 
49nm SE 
212340Z AUTO 25005KT 10SM CLR 37/16 A2990 RMK AO2
TAF
KABI 
30nm S 
211723Z 2118/2218 05006KT P6SM SCT080 FM220100 17008KT P6SM SKC
KDYS 
30nm S 
211600Z 2116/2222 07006KT 9999 FEW070 QNH2988INS BECMG 2202/2203 20012KT 9999 SKC QNH2978INS TX36/2120Z TN23/2211Z
NOTAMs
Click for the latest NOTAMs
NOTAMs are issued by the DoD/FAA and will open in a separate window not controlled by AirNav.

 

 
 

Would you like to see your business listed on this page?

 If your business provides an interesting product or service to pilots, flight crews, aircraft, or users of the Arledge Field Airport, you should consider listing it here.  To start the listing process, click on the button below
 
Add a business
 

Other Pages about Arledge Field Airport

www.sunsetpass.com/...
 
Update a link
 
Copyright © AirNav, LLC. All rights reserved. Privacy Policy  Contact